Time;durP1;ratioP1;P1;durP2;ratioP2;P2;SDS_P1;SDS_P2;PMS_P1;PMS_P2;Temp;Humidity;BMP_temperature;BMP_pressure;BME280_temperature;BME280_humidity;BME280_pressure;Samples;Min_cycle;Max_cycle;Signal;HPM_P1;HPM_P2
2023/06/23 00:00:27;;;;;;;8.70;4.88;;;;;;;18.33;89.99;100495.25;4983696;28;20518;-83
2023/06/23 00:03:33;;;;;;;7.75;4.68;;;;;;;18.35;86.85;100498.59;4983586;28;20050;-83
2023/06/23 00:07:00;;;;;;;6.60;4.60;;;;;;;18.12;86.34;100492.63;4986578;28;20065;-83
2023/06/23 00:11:10;;;;;;;;;;;;;;;;;;;;;
2023/06/23 00:19:27;;;;;;;5.43;4.43;;;;;;;18.05;84.23;100511.78;4995425;28;20050;-82
2023/06/23 00:28:23;;;;;;;5.55;3.38;;;;;;;17.99;85.36;100534.28;4994903;28;20117;-83
2023/06/23 00:36:51;;;;;;;5.07;4.40;;;;;;;18.03;86.60;100540.19;4977032;28;20061;-83
2023/06/23 00:45:33;;;;;;;5.47;4.32;;;;;;;18.36;89.81;100532.03;4985494;28;20045;-85
2023/06/23 02:16:16;;;;;;;9.70;7.47;;;;;;;18.34;82.29;100591.38;5008701;28;20185;-84
2023/06/23 02:19:32;;;;;;;8.48;7.55;;;;;;;18.36;80.84;100594.75;5000696;28;20048;-84
2023/06/23 02:44:04;;;;;;;8.90;8.10;;;;;;;18.04;84.35;100656.47;5575067;23;20044;-83
2023/06/23 02:47:15;;;;;;;9.55;7.93;;;;;;;18.07;83.68;100660.66;5071987;28;20090;-83
2023/06/23 02:50:22;;;;;;;9.50;8.15;;;;;;;18.17;82.83;100666.88;5059478;28;20050;-83
2023/06/23 02:53:34;;;;;;;11.38;9.05;;;;;;;18.05;83.11;100687.25;5072051;28;20059;-83
2023/06/23 02:56:43;;;;;;;10.90;8.93;;;;;;;17.94;84.36;100684.63;5059719;28;20547;-84
2023/06/23 02:59:51;;;;;;;9.88;8.88;;;;;;;18.09;83.59;100682.53;5059456;28;20086;-83
2023/06/23 03:02:58;;;;;;;10.52;9.32;;;;;;;17.95;82.73;100686.31;5071876;28;20094;-83
2023/06/23 03:06:02;;;;;;;9.80;8.75;;;;;;;17.93;84.23;100704.09;5071514;28;20047;-82
2023/06/23 03:09:06;;;;;;;10.40;9.30;;;;;;;17.87;83.63;100723.13;5059378;28;20098;-84
2023/06/23 03:12:09;;;;;;;10.70;8.70;;;;;;;17.97;84.71;100716.13;5071689;28;20443;-81
2023/06/23 03:15:19;;;;;;;11.93;8.68;;;;;;;18.03;84.73;100720.09;5071640;28;20103;-84
2023/06/23 03:23:12;;;;;;;11.13;8.18;;;;;;;17.83;84.05;100732.25;5071913;28;20056;-84
2023/06/23 03:26:19;;;;;;;7.95;7.15;;;;;;;17.75;84.58;100732.00;5059189;28;20096;-82
2023/06/23 03:30:15;;;;;;;8.50;6.53;;;;;;;17.62;84.79;100732.13;5048830;28;20048;-84
2023/06/23 03:33:24;;;;;;;8.32;6.68;;;;;;;17.50;84.75;100738.38;4970533;28;20090;-84
2023/06/23 03:36:38;;;;;;;9.60;6.83;;;;;;;17.55;85.46;100745.00;4967888;28;20098;-85
2023/06/23 03:39:44;;;;;;;9.25;7.05;;;;;;;17.67;85.75;100735.22;5051572;28;20629;-81
2023/06/23 03:42:53;;;;;;;8.90;6.97;;;;;;;18.00;84.06;100746.81;5051667;28;20048;-74
2023/06/23 03:46:00;;;;;;;8.43;6.57;;;;;;;17.95;84.05;100762.19;5027945;28;20461;-74
2023/06/23 03:49:08;;;;;;;8.75;6.25;;;;;;;17.99;83.35;100771.56;5054308;28;20048;-76
2023/06/23 03:52:14;;;;;;;7.10;6.40;;;;;;;17.84;83.07;100782.41;5054988;28;20521;-74
2023/06/23 03:55:20;;;;;;;6.93;6.18;;;;;;;17.85;83.78;100786.72;5054834;28;20122;-75
2023/06/23 03:58:25;;;;;;;7.18;6.38;;;;;;;17.86;83.83;100792.84;5054669;28;20529;-75
2023/06/23 04:01:32;;;;;;;7.80;6.30;;;;;;;17.78;82.50;100809.34;5054641;28;20044;-87
2023/06/23 04:04:39;;;;;;;8.13;5.93;;;;;;;17.49;82.15;100789.56;5054849;28;20075;-83
2023/06/23 04:07:52;;;;;;;6.53;5.50;;;;;;;17.49;81.79;100810.72;5054776;28;20090;-79
2023/06/23 04:11:03;;;;;;;6.63;5.93;;;;;;;17.38;81.76;100815.00;5054737;28;20552;-87
2023/06/23 04:14:11;;;;;;;7.55;5.55;;;;;;;17.62;82.28;100822.03;5054929;28;20084;-80
2023/06/23 04:17:17;;;;;;;7.53;5.35;;;;;;;17.40;81.53;100825.47;5054656;28;20043;-84
2023/06/23 04:20:24;;;;;;;7.13;5.20;;;;;;;17.48;82.51;100827.53;5054876;28;20060;-83
2023/06/23 04:23:39;;;;;;;7.03;4.53;;;;;;;17.73;81.24;100835.25;5054660;28;20098;-85
2023/06/23 04:26:44;;;;;;;7.03;4.95;;;;;;;17.76;79.96;100842.94;5042444;28;20102;-84
2023/06/23 04:29:50;;;;;;;5.15;4.45;;;;;;;17.83;80.07;100853.94;5054195;28;20048;-82
2023/06/23 04:32:56;;;;;;;7.85;4.60;;;;;;;17.62;79.92;100861.69;5041910;28;20112;-86
2023/06/23 04:36:29;;;;;;;8.27;5.30;;;;;;;17.41;80.01;100851.78;5054490;28;20051;-85
2023/06/23 04:40:37;;;;;;;6.43;5.13;;;;;;;17.54;80.85;100861.44;5054138;28;20040;-83
2023/06/23 04:43:46;;;;;;;7.53;5.88;;;;;;;17.38;80.71;100867.88;5049338;28;20061;-83
2023/06/23 04:46:54;;;;;;;9.73;5.30;;;;;;;17.23;80.97;100874.34;5032459;28;20049;-83
2023/06/23 04:50:07;;;;;;;7.13;6.00;;;;;;;17.30;80.93;100877.34;5033702;28;20061;-83
2023/06/23 04:53:16;;;;;;;7.30;6.25;;;;;;;17.47;81.28;100870.78;5034026;28;20048;-84
2023/06/23 04:56:50;;;;;;;6.70;6.00;;;;;;;17.41;80.30;100874.72;5033800;28;20052;-87
2023/06/23 05:00:46;;;;;;;8.90;6.70;;;;;;;17.40;80.25;100887.13;5033911;28;20086;-89
2023/06/23 05:03:52;;;;;;;10.63;6.97;;;;;;;17.37;80.92;100876.75;4998536;28;20506;-81
2023/06/23 05:07:46;;;;;;;9.00;6.78;;;;;;;17.26;81.89;100887.31;5034283;28;20075;-87
2023/06/23 05:16:42;;;;;;;8.95;7.57;;;;;;;17.56;80.60;100904.47;5034261;28;20100;-87
2023/06/23 05:56:49;;;;;;;11.25;7.25;;;;;;;17.78;78.56;100964.56;5030406;28;20115;-87
2023/06/23 06:00:14;;;;;;;9.55;8.38;;;;;;;17.74;77.51;100961.25;5032720;28;20577;-82
2023/06/23 06:07:45;;;;;;;11.73;7.28;;;;;;;17.84;78.91;100964.94;5032935;28;20044;-88
2023/06/23 06:16:01;;;;;;;8.32;7.43;;;;;;;18.15;76.58;100978.44;5032280;28;20048;-85
2023/06/23 06:19:07;;;;;;;13.15;8.00;;;;;;;18.17;76.28;100992.41;5030699;28;20043;-81
2023/06/23 06:22:15;;;;;;;9.73;7.40;;;;;;;18.17;75.87;100987.13;5030596;28;20052;-85
2023/06/23 06:25:18;;;;;;;10.52;7.32;;;;;;;18.23;75.55;100989.28;5029834;28;20044;-86
2023/06/23 06:28:25;;;;;;;8.80;7.63;;;;;;;18.41;75.71;100988.81;5018294;28;20188;-77
2023/06/23 06:31:30;;;;;;;9.93;8.30;;;;;;;18.33;74.71;100994.72;5030452;28;20128;-76
2023/06/23 06:34:35;;;;;;;9.45;7.68;;;;;;;18.51;74.54;101001.25;5019863;28;20044;-77
2023/06/23 06:37:41;;;;;;;12.52;7.55;;;;;;;18.50;74.03;101004.81;5032322;28;20123;-78
2023/06/23 06:40:49;;;;;;;8.98;7.88;;;;;;;18.64;73.40;100998.47;5026788;28;20053;-83
2023/06/23 06:43:52;;;;;;;8.32;7.18;;;;;;;18.83;72.91;101005.00;5032135;28;20056;-78
2023/06/23 06:47:01;;;;;;;11.88;8.35;;;;;;;18.61;72.98;101016.41;5048750;28;20078;-76
2023/06/23 06:50:07;;;;;;;9.55;8.18;;;;;;;18.73;73.22;101031.34;5054436;28;20091;-79
2023/06/23 06:53:14;;;;;;;9.65;7.80;;;;;;;18.79;72.93;101034.38;5052386;28;20055;-79
2023/06/23 06:56:21;;;;;;;10.50;8.73;;;;;;;18.98;72.63;101041.69;5052759;28;20102;-80
2023/06/23 06:59:25;;;;;;;8.88;7.97;;;;;;;19.16;72.77;101044.69;5040329;28;20095;-77
2023/06/23 07:02:29;;;;;;;8.27;7.45;;;;;;;19.10;71.35;101053.13;5039859;28;20075;-79
2023/06/23 07:05:33;;;;;;;9.82;8.07;;;;;;;19.05;71.38;101057.97;5051836;28;20111;-78
2023/06/23 07:08:36;;;;;;;11.13;8.27;;;;;;;18.95;71.95;101057.00;5051581;28;20048;-77
2023/06/23 07:11:39;;;;;;;9.85;8.57;;;;;;;19.03;70.62;101060.75;5052575;28;20556;-78
2023/06/23 07:14:43;;;;;;;13.40;8.65;;;;;;;18.89;71.51;101062.78;5053394;28;20124;-79
2023/06/23 07:17:46;;;;;;;9.10;8.20;;;;;;;19.12;71.29;101064.47;5052772;28;20306;-78
2023/06/23 07:20:49;;;;;;;13.98;9.50;;;;;;;19.04;70.47;101066.88;5053796;28;20330;-79
2023/06/23 07:23:53;;;;;;;9.55;7.63;;;;;;;19.25;70.23;101081.06;5056550;28;20052;-77
2023/06/23 07:26:56;;;;;;;9.95;7.35;;;;;;;19.11;70.08;101083.97;5055547;28;20126;-79
2023/06/23 07:29:59;;;;;;;9.20;7.40;;;;;;;19.14;71.54;101091.69;5055507;28;20056;-79
2023/06/23 07:33:03;;;;;;;11.60;7.88;;;;;;;19.32;71.27;101109.75;5055561;28;20136;-81
2023/06/23 07:36:12;;;;;;;8.50;7.65;;;;;;;19.29;70.74;101110.84;5055401;28;20048;-78
2023/06/23 07:39:15;;;;;;;11.93;9.40;;;;;;;18.88;71.25;101124.69;5055726;28;20036;-78
2023/06/23 07:42:18;;;;;;;10.50;8.13;;;;;;;18.81;72.76;101121.69;5055443;28;20410;-78
2023/06/23 07:45:22;;;;;;;9.32;8.45;;;;;;;18.88;71.88;101124.69;5055115;28;20114;-80
2023/06/23 07:48:26;;;;;;;8.60;7.70;;;;;;;19.18;71.47;101138.22;5055189;28;20120;-79
2023/06/23 07:51:29;;;;;;;10.20;8.77;;;;;;;18.89;71.24;101144.91;5055187;28;20052;-79
2023/06/23 07:54:33;;;;;;;8.98;8.15;;;;;;;18.95;70.27;101145.31;5042726;28;20056;-79
2023/06/23 07:57:36;;;;;;;10.32;7.95;;;;;;;18.97;70.70;101145.19;5053928;28;20110;-79
2023/06/23 08:00:40;;;;;;;8.30;7.47;;;;;;;19.07;71.59;101135.56;5055196;28;20072;-80
2023/06/23 08:03:46;;;;;;;9.18;8.05;;;;;;;19.08;70.86;101147.84;5054795;28;20040;-79
2023/06/23 08:06:50;;;;;;;9.98;8.98;;;;;;;18.96;69.56;101154.09;5030921;28;20103;-78
2023/06/23 08:09:53;;;;;;;9.45;8.45;;;;;;;18.99;70.11;101154.72;5054501;28;20040;-79
2023/06/23 08:12:57;;;;;;;10.45;8.43;;;;;;;18.80;72.01;101160.59;5054688;28;20052;-78
2023/06/23 08:16:03;;;;;;;9.95;8.98;;;;;;;18.68;72.64;101160.66;5054662;28;20513;-77
2023/06/23 08:19:07;;;;;;;10.63;9.52;;;;;;;18.67;72.56;101169.56;5054685;28;20055;-78
2023/06/23 08:22:14;;;;;;;12.27;10.68;;;;;;;18.74;72.39;101176.09;5054672;28;20048;-77
2023/06/23 08:25:19;;;;;;;10.20;8.80;;;;;;;18.88;72.40;101177.69;5054790;28;20366;-77
2023/06/23 08:28:33;;;;;;;9.73;8.68;;;;;;;19.26;71.28;101185.31;5053910;28;20056;-78
2023/06/23 08:31:36;;;;;;;11.02;9.02;;;;;;;19.50;71.11;101187.88;5052694;28;20124;-78
2023/06/23 08:34:50;;;;;;;;;;;;;;;19.88;70.29;101190.13;5041546;28;20443;-78
2023/06/23 08:38:00;;;;;;;8.48;7.60;;;;;;;19.95;68.33;101187.81;5041622;28;19919;-80
2023/06/23 08:41:09;;;;;;;7.93;7.20;;;;;;;20.11;66.90;101195.38;5053705;28;20402;-87
2023/06/23 08:44:45;;;;;;;8.82;7.95;;;;;;;20.00;66.70;101195.38;5053839;28;20059;-81
2023/06/23 08:49:10;;;;;;;8.82;7.78;;;;;;;19.89;66.44;101197.09;5052398;28;20410;-82
2023/06/23 08:52:17;;;;;;;15.00;8.55;;;;;;;20.03;66.68;101203.09;5033701;28;20083;-83
2023/06/23 08:55:34;;;;;;;8.90;7.60;;;;;;;19.93;65.72;101197.69;5033308;28;20500;-83
2023/06/23 09:02:47;;;;;;;11.00;7.28;;;;;;;20.21;65.55;101201.59;5021935;28;20525;-83
2023/06/23 09:05:51;;;;;;;7.82;7.03;;;;;;;20.17;66.23;101205.50;5022074;28;20184;-83
2023/06/23 09:08:55;;;;;;;9.35;7.72;;;;;;;20.10;65.31;101223.75;5033649;28;20454;-83
2023/06/23 09:12:00;;;;;;;8.60;7.22;;;;;;;20.30;64.22;101226.56;5032480;28;20064;-83
2023/06/23 09:15:05;;;;;;;6.95;6.25;;;;;;;20.66;63.44;101218.22;5032818;28;20048;-83
2023/06/23 09:18:21;;;;;;;8.43;6.60;;;;;;;20.75;64.82;101231.72;5032955;28;20567;-84
2023/06/23 09:21:27;;;;;;;9.18;6.43;;;;;;;20.67;62.07;101237.66;5020336;28;20047;-82
2023/06/23 09:24:46;;;;;;;6.65;5.65;;;;;;;20.69;60.99;101227.75;5032929;28;20091;-82
2023/06/23 09:27:51;;;;;;;7.25;5.55;;;;;;;20.70;60.64;101223.28;5033600;28;20056;-85
2023/06/23 09:31:00;;;;;;;6.03;5.10;;;;;;;21.03;60.05;101219.59;5033277;28;20426;-84
2023/06/23 09:34:05;;;;;;;6.88;5.15;;;;;;;20.97;59.57;101218.31;5021241;28;20466;-85
2023/06/23 09:37:14;;;;;;;7.32;5.53;;;;;;;20.91;59.67;101229.44;5033060;28;20499;-84
2023/06/23 09:40:32;;;;;;;8.05;6.20;;;;;;;20.40;61.43;101232.81;5021144;28;20182;-84
2023/06/23 09:43:45;;;;;;;5.72;5.07;;;;;;;20.58;61.49;101231.31;5037634;28;20187;-85
2023/06/23 09:47:02;;;;;;;8.68;5.57;;;;;;;20.92;62.23;101238.25;5052858;28;20110;-85
2023/06/23 09:50:15;;;;;;;7.70;5.65;;;;;;;21.16;61.31;101236.19;5052918;28;20517;-85
2023/06/23 09:53:20;;;;;;;6.45;5.38;;;;;;;20.92;60.44;101239.09;5052319;28;20076;-85
2023/06/23 09:56:24;;;;;;;7.70;5.43;;;;;;;20.69;60.49;101242.88;5052984;28;20091;-83
2023/06/23 10:00:19;;;;;;;5.97;5.28;;;;;;;20.80;59.96;101240.97;5052874;28;20040;-81
2023/06/23 10:03:22;;;;;;;6.80;5.30;;;;;;;21.10;60.15;101242.03;5052690;28;20517;-84
2023/06/23 10:06:37;;;;;;;5.85;5.25;;;;;;;21.03;59.59;101249.69;5051052;28;20059;-84
2023/06/23 10:09:51;;;;;;;7.95;5.43;;;;;;;20.86;60.71;101237.78;5051726;28;20114;-84
2023/06/23 10:13:01;;;;;;;6.00;4.97;;;;;;;21.12;59.89;101246.25;5040532;28;20078;-76
2023/06/23 10:16:18;;;;;;;7.53;5.22;;;;;;;21.28;59.20;101251.09;5040461;28;20513;-89
2023/06/23 10:19:59;;;;;;;5.87;5.13;;;;;;;21.71;60.20;101241.22;5052815;28;20047;-84
2023/06/23 10:23:37;;;;;;;7.43;4.65;;;;;;;21.52;57.50;101237.50;5053122;28;20875;-87
2023/06/23 10:26:42;;;;;;;6.80;5.15;;;;;;;21.59;57.07;101259.09;5052760;28;20074;-84
2023/06/23 10:29:52;;;;;;;8.38;4.70;;;;;;;21.36;59.11;101258.44;5350392;23;20069;-79
2023/06/23 10:32:57;;;;;;;9.32;5.50;;;;;;;21.36;59.16;101264.59;5007792;28;20104;-79
2023/06/23 10:36:52;;;;;;;5.78;4.88;;;;;;;21.37;57.81;101260.09;5010900;28;20048;-85
2023/06/23 10:40:04;;;;;;;5.65;4.53;;;;;;;21.79;56.93;101260.88;5011743;28;20096;-73
2023/06/23 10:43:35;;;;;;;7.28;4.50;;;;;;;22.15;56.09;101257.75;5012368;28;20115;-72
2023/06/23 10:46:39;;;;;;;6.35;4.03;;;;;;;22.11;55.19;101264.28;5010671;28;20084;-72
2023/06/23 10:49:44;;;;;;;5.72;4.30;;;;;;;21.82;55.30;101270.38;5011776;28;20041;-72
2023/06/23 10:52:47;;;;;;;6.28;4.65;;;;;;;21.70;55.92;101271.47;5012124;28;20510;-73
2023/06/23 10:55:58;;;;;;;7.03;4.80;;;;;;;21.45;56.84;101284.25;5012387;28;20110;-82
2023/06/23 10:59:27;;;;;;;5.57;3.88;;;;;;;21.33;58.16;101291.44;5005151;28;20052;-82
2023/06/23 11:02:52;;;;;;;6.80;4.55;;;;;;;21.63;57.94;101265.81;5016667;28;20129;-82
2023/06/23 11:05:56;;;;;;;5.97;4.47;;;;;;;22.15;55.38;101266.56;5016676;28;20092;-82
2023/06/23 11:09:03;;;;;;;6.35;3.78;;;;;;;22.25;53.80;101272.78;5014494;28;20138;-83
2023/06/23 11:12:31;;;;;;;5.25;3.97;;;;;;;22.38;53.38;101291.16;5016595;28;20072;-83
2023/06/23 11:15:38;;;;;;;10.60;3.72;;;;;;;22.24;54.66;101270.25;5016378;28;20053;-85
2023/06/23 11:18:51;;;;;;;7.30;3.88;;;;;;;22.40;52.00;101273.22;5014964;28;20041;-75
2023/06/23 11:22:08;;;;;;;5.93;3.67;;;;;;;22.72;52.81;101264.13;5015643;28;20142;-86
2023/06/23 11:25:26;;;;;;;6.57;3.60;;;;;;;22.63;51.15;101270.28;5005522;28;20125;-76
2023/06/23 11:29:00;;;;;;;4.80;3.33;;;;;;;22.54;53.07;101290.63;5004016;28;20127;-85
2023/06/23 11:32:15;;;;;;;4.40;3.10;;;;;;;22.61;52.51;101275.75;5015477;28;20065;-83
2023/06/23 11:35:22;;;;;;;6.47;3.50;;;;;;;22.70;50.97;101277.56;5004540;28;20041;-81
2023/06/23 11:39:00;;;;;;;6.43;3.45;;;;;;;22.94;50.73;101265.66;5014035;28;20060;-87
2023/06/23 11:42:23;;;;;;;4.15;2.90;;;;;;;22.85;49.09;101270.00;5012792;28;20423;-77
2023/06/23 11:46:37;;;;;;;4.63;2.88;;;;;;;22.70;48.99;101272.25;5015685;28;20057;-89
2023/06/23 12:06:18;;;;;;;4.40;2.63;;;;;;;23.33;47.22;101282.44;5015746;28;20490;-89
2023/06/23 12:09:51;;;;;;;4.18;2.63;;;;;;;23.27;46.67;101280.34;5004178;28;20404;-87
2023/06/23 12:24:00;;;;;;;5.20;2.95;;;;;;;23.15;47.74;101268.16;4954242;29;20031;-86
2023/06/23 12:27:21;;;;;;;;;;;;;;;;;;;;;
2023/06/23 12:31:40;;;;;;;4.13;2.55;;;;;;;22.81;48.97;101276.56;4952003;29;20101;-85
2023/06/23 12:34:45;;;;;;;4.18;2.65;;;;;;;23.33;48.68;101271.75;4964023;28;20044;-80
2023/06/23 12:37:50;;;;;;;5.60;3.15;;;;;;;23.38;48.55;101273.97;5001538;28;20041;-85
2023/06/23 12:40:53;;;;;;;4.75;2.72;;;;;;;23.71;49.14;101267.28;5002192;28;20459;-84
2023/06/23 12:44:05;;;;;;;9.65;3.97;;;;;;;24.10;48.93;101267.09;5014502;28;20123;-81
2023/06/23 12:47:24;;;;;;;4.57;2.88;;;;;;;23.75;47.46;101274.00;5003016;28;20566;-83
2023/06/23 12:50:31;;;;;;;4.80;2.70;;;;;;;23.53;46.44;101275.19;5014405;28;20112;-74
2023/06/23 12:53:35;;;;;;;6.38;3.50;;;;;;;23.82;46.77;101279.59;5013856;28;20107;-76
2023/06/23 12:57:44;;;;;;;7.97;3.00;;;;;;;24.26;46.21;101275.28;5014275;28;20056;-81
2023/06/23 13:00:48;;;;;;;7.95;3.40;;;;;;;24.68;46.28;101260.50;4958035;28;20068;-85
2023/06/23 13:03:54;;;;;;;5.18;2.75;;;;;;;24.24;44.81;101265.72;5014452;28;20404;-86
2023/06/23 13:07:01;;;;;;;6.25;3.00;;;;;;;24.31;44.73;101273.00;5014262;28;20455;-86
2023/06/23 13:10:10;;;;;;;7.95;3.40;;;;;;;24.37;44.66;101269.69;5011806;28;20053;-87
2023/06/23 13:13:54;;;;;;;5.95;2.88;;;;;;;24.71;43.92;101268.19;5003361;28;20100;-86
2023/06/23 13:21:35;;;;;;;4.88;2.88;;;;;;;24.50;43.43;101265.84;5014210;28;20080;-84
2023/06/23 13:24:40;;;;;;;3.78;2.38;;;;;;;24.53;44.92;101268.19;5013404;28;20446;-85
2023/06/23 13:27:45;;;;;;;5.38;2.60;;;;;;;24.20;43.88;101259.00;5000151;28;20088;-84
2023/06/23 13:30:51;;;;;;;3.15;2.17;;;;;;;24.41;43.48;101258.69;5012374;28;20108;-83
2023/06/23 13:33:56;;;;;;;3.97;2.40;;;;;;;24.78;43.35;101266.59;5001387;28;20084;-77
2023/06/23 13:37:38;;;;;;;5.32;2.50;;;;;;;24.76;42.25;101269.44;5013935;28;20103;-84
2023/06/23 13:45:35;;;;;;;3.30;2.53;;;;;;;25.97;41.22;101261.44;5012168;28;20110;-78
2023/06/23 13:48:38;;;;;;;4.63;2.95;;;;;;;25.91;41.25;101264.78;5013178;28;20147;-83
2023/06/23 13:51:49;;;;;;;6.43;2.28;;;;;;;26.47;40.22;101268.59;5001231;28;20193;-84
2023/06/23 13:54:53;;;;;;;4.18;2.75;;;;;;;26.33;40.33;101256.69;5001121;28;20514;-75
2023/06/23 13:57:57;;;;;;;5.30;2.53;;;;;;;25.60;40.33;101277.88;5011388;28;20061;-75
2023/06/23 14:01:00;;;;;;;4.95;2.70;;;;;;;25.90;39.72;101266.63;5011076;28;20040;-75
2023/06/23 14:04:03;;;;;;;5.22;2.28;;;;;;;25.39;39.98;101262.19;5012422;28;20157;-75
2023/06/23 14:07:15;;;;;;;5.00;2.35;;;;;;;25.52;40.86;101265.25;5012635;28;20072;-73
2023/06/23 14:10:19;;;;;;;;;;;;;;;26.35;40.43;101267.22;5011951;28;20447;-75
2023/06/23 14:13:23;;;;;;;4.20;2.58;;;;;;;26.77;38.44;101251.03;5012751;28;19920;-81
2023/06/23 14:16:27;;;;;;;5.72;2.70;;;;;;;26.19;39.51;101263.50;5012985;28;20096;-85
2023/06/23 14:19:31;;;;;;;3.47;2.45;;;;;;;26.65;38.67;101255.91;5012988;28;20049;-84
2023/06/23 14:22:36;;;;;;;3.33;2.47;;;;;;;27.71;37.22;101249.50;5013261;28;20053;-83
2023/06/23 14:25:39;;;;;;;4.78;2.28;;;;;;;27.12;39.34;101252.50;5013038;28;20076;-84
2023/06/23 14:32:20;;;;;;;6.32;2.20;;;;;;;25.73;39.72;101275.56;5012371;28;20061;-84
2023/06/23 14:35:26;;;;;;;4.13;2.50;;;;;;;25.31;41.06;101267.50;5012709;28;20040;-83
2023/06/23 14:38:31;;;;;;;4.60;2.33;;;;;;;28.74;34.53;101267.19;5013053;28;20515;-86
2023/06/23 14:41:35;;;;;;;4.07;2.50;;;;;;;26.26;39.39;101262.84;5012861;28;20138;-86
2023/06/23 14:44:41;;;;;;;4.55;2.63;;;;;;;26.79;39.34;101259.75;5000661;28;20125;-84
2023/06/23 14:47:56;;;;;;;5.13;2.38;;;;;;;28.43;36.03;101254.69;5012754;28;20165;-86
2023/06/23 14:51:01;;;;;;;5.35;2.63;;;;;;;30.83;33.34;101256.00;5000806;28;20052;-86
2023/06/23 14:54:05;;;;;;;3.50;2.53;;;;;;;34.23;28.08;101249.91;5012396;28;20048;-84
2023/06/23 14:57:08;;;;;;;8.48;3.42;;;;;;;33.32;28.34;101261.78;5012685;28;20045;-85
2023/06/23 15:00:12;;;;;;;3.70;2.38;;;;;;;29.99;30.78;101277.31;5012836;28;20040;-85
2023/06/23 15:03:19;;;;;;;5.18;2.50;;;;;;;29.73;31.99;101286.75;5012845;28;20049;-85
2023/06/23 15:07:16;;;;;;;3.90;2.10;;;;;;;34.10;26.62;101260.88;5013042;28;20133;-87
2023/06/23 15:10:26;;;;;;;3.17;2.10;;;;;;;31.69;28.27;101270.06;5000778;28;20475;-86
2023/06/23 15:13:35;;;;;;;4.95;4.45;;;;;;;31.74;27.87;101270.28;5013204;28;20068;-86
2023/06/23 15:16:56;;;;;;;3.50;2.17;;;;;;;34.29;26.13;101265.31;5013915;28;20040;-87
2023/06/23 15:20:09;;;;;;;3.88;2.00;;;;;;;33.27;25.69;101280.53;5001028;28;20044;-86
2023/06/23 15:23:14;;;;;;;3.00;1.73;;;;;;;31.19;28.04;101272.06;4989640;28;20478;-86
2023/06/23 15:26:20;;;;;;;2.78;1.80;;;;;;;30.78;28.70;101270.09;5012297;28;20079;-85
2023/06/23 15:29:23;;;;;;;2.90;2.20;;;;;;;32.83;26.11;101272.03;5011970;28;20041;-85
2023/06/23 15:32:27;;;;;;;3.80;2.10;;;;;;;32.04;27.10;101261.09;4992620;28;20088;-84
2023/06/23 15:35:30;;;;;;;2.90;2.10;;;;;;;34.11;24.59;101276.09;4992546;28;20507;-81
2023/06/23 15:38:34;;;;;;;2.50;1.73;;;;;;;32.70;25.26;101265.78;4977149;28;20128;-82
2023/06/23 15:41:39;;;;;;;2.60;1.67;;;;;;;32.68;26.48;101263.28;4992611;28;20097;-85
2023/06/23 15:44:44;;;;;;;3.20;2.20;;;;;;;32.26;26.00;101269.84;4996100;28;20045;-82
2023/06/23 15:47:48;;;;;;;3.03;1.65;;;;;;;31.48;26.13;101268.31;4996091;28;20112;-81
2023/06/23 15:51:07;;;;;;;3.70;2.05;;;;;;;32.20;25.29;101258.00;4982783;28;20052;-86
2023/06/23 15:54:18;;;;;;;4.13;2.08;;;;;;;30.61;27.03;101268.66;4995312;28;20137;-88
2023/06/23 16:02:25;;;;;;;2.67;1.90;;;;;;;33.72;23.85;101264.34;4940951;29;20054;-87
2023/06/23 16:05:28;;;;;;;4.43;1.83;;;;;;;29.38;28.46;101281.06;4935856;29;20058;-83
2023/06/23 16:08:33;;;;;;;11.13;1.95;;;;;;;28.41;30.94;101267.47;4935719;29;20564;-84
2023/06/23 16:11:36;;;;;;;2.75;2.03;;;;;;;28.59;30.86;101277.06;4984514;28;20049;-82
2023/06/23 16:14:40;;;;;;;4.30;1.95;;;;;;;28.76;30.59;101270.56;4995482;28;20049;-84
2023/06/23 16:17:44;;;;;;;4.40;2.00;;;;;;;28.84;30.60;101273.16;4983809;28;20045;-82
2023/06/23 16:20:49;;;;;;;3.42;2.25;;;;;;;29.28;30.18;101275.13;4995708;28;20044;-85
2023/06/23 16:23:54;;;;;;;3.67;2.35;;;;;;;27.70;32.62;101273.84;4995606;28;20139;-85
2023/06/23 16:26:58;;;;;;;3.72;2.10;;;;;;;27.67;33.04;101269.66;4995689;28;20049;-84
2023/06/23 16:30:04;;;;;;;5.30;2.17;;;;;;;27.83;32.14;101265.28;4986563;28;20168;-84
2023/06/23 16:33:09;;;;;;;3.20;2.30;;;;;;;27.01;33.21;101274.31;5002793;28;20092;-83
2023/06/23 16:36:13;;;;;;;4.13;1.90;;;;;;;26.80;33.65;101276.69;5014594;28;20052;-85
2023/06/23 16:39:16;;;;;;;5.20;1.92;;;;;;;26.57;33.27;101277.34;5014657;28;20044;-81
2023/06/23 16:42:19;;;;;;;3.72;1.80;;;;;;;26.60;33.51;101277.00;5014768;28;20052;-82
2023/06/23 16:45:29;;;;;;;5.18;2.35;;;;;;;26.72;33.77;101279.38;5015446;28;20056;-86
2023/06/23 16:48:39;;;;;;;3.28;2.00;;;;;;;26.65;33.71;101274.69;5014136;28;20180;-78
2023/06/23 16:51:43;;;;;;;5.05;2.22;;;;;;;26.55;33.96;101279.38;5014481;28;20053;-85
2023/06/23 16:54:46;;;;;;;4.03;2.33;;;;;;;26.61;34.42;101277.84;5013709;28;20232;-72
2023/06/23 16:57:50;;;;;;;3.35;1.90;;;;;;;26.77;36.09;101282.38;5014325;28;20068;-72
2023/06/23 17:00:53;;;;;;;3.78;2.15;;;;;;;26.59;35.53;101280.72;5014189;28;20073;-72
2023/06/23 17:03:57;;;;;;;4.50;2.45;;;;;;;26.59;35.75;101290.59;5014296;28;20045;-85
2023/06/23 17:07:01;;;;;;;3.92;2.60;;;;;;;26.01;35.95;101289.63;5014193;28;20077;-84
2023/06/23 17:10:06;;;;;;;5.18;2.53;;;;;;;26.13;35.80;101296.34;5014120;28;20151;-83
2023/06/23 17:18:06;;;;;;;3.65;2.20;;;;;;;26.06;35.38;101300.66;5013898;28;20068;-86
2023/06/23 17:33:01;;;;;;;5.93;2.30;;;;;;;25.61;38.72;101317.84;5646287;23;20041;-86
2023/06/23 17:48:12;;;;;;;;;;;;;;;;;;;;;
2023/06/23 18:18:00;;;;;;;14.45;12.35;;;;;;;24.83;46.32;101339.19;4595698;31;20575;-79
2023/06/23 18:21:08;;;;;;;8.73;6.18;;;;;;;24.74;46.92;101324.91;4629639;30;20070;-83
2023/06/23 18:24:36;;;;;;;7.25;3.85;;;;;;;24.59;46.74;101327.25;4691910;29;20592;-85
2023/06/23 18:27:42;;;;;;;7.57;4.78;;;;;;;24.40;47.42;101331.88;4807286;29;20260;-83
2023/06/23 18:30:46;;;;;;;3.88;2.90;;;;;;;24.36;49.25;101339.34;4944089;28;20047;-82
2023/06/23 18:33:51;;;;;;;5.15;2.20;;;;;;;24.22;47.91;101348.72;5032218;28;20084;-84
2023/06/23 18:36:55;;;;;;;4.53;2.10;;;;;;;24.09;48.68;101345.53;5032649;28;20534;-84
2023/06/23 18:40:12;;;;;;;4.68;2.60;;;;;;;23.94;49.22;101344.38;5032025;28;20087;-80
2023/06/23 18:43:15;;;;;;;5.90;2.70;;;;;;;23.92;49.85;101343.66;5010447;28;20541;-83
2023/06/23 18:46:20;;;;;;;5.75;2.65;;;;;;;23.71;50.01;101342.06;5032315;28;20454;-84
2023/06/23 18:49:34;;;;;;;3.53;1.95;;;;;;;23.52;50.09;101342.94;5032305;28;20168;-86
2023/06/23 18:52:37;;;;;;;3.70;2.38;;;;;;;23.34;50.56;101347.31;5032251;28;20451;-85
2023/06/23 18:55:44;;;;;;;3.83;2.70;;;;;;;23.10;51.09;101358.41;5032216;28;20095;-83
2023/06/23 18:58:51;;;;;;;4.38;2.53;;;;;;;23.08;52.13;101352.41;5031685;28;20045;-84
2023/06/23 19:01:55;;;;;;;7.63;2.30;;;;;;;22.86;51.76;101362.34;5032080;28;20055;-82
2023/06/23 19:04:59;;;;;;;4.68;2.47;;;;;;;22.76;53.39;101356.16;5032132;28;20107;-83
2023/06/23 19:08:03;;;;;;;5.65;3.25;;;;;;;22.56;55.66;101354.44;5032365;28;20101;-83
2023/06/23 19:11:33;;;;;;;4.50;2.33;;;;;;;22.52;54.65;101348.53;5032448;28;20042;-84
2023/06/23 19:14:42;;;;;;;4.47;2.67;;;;;;;22.48;54.46;101355.13;5032491;28;20130;-82
2023/06/23 19:17:45;;;;;;;5.22;2.60;;;;;;;22.43;55.61;101360.00;5031142;28;20107;-83
2023/06/23 19:20:50;;;;;;;3.35;2.05;;;;;;;22.21;57.41;101366.44;5034480;28;20044;-83
2023/06/23 19:23:54;;;;;;;4.00;2.53;;;;;;;22.04;58.62;101371.34;5023178;28;20067;-81
2023/06/23 19:26:57;;;;;;;3.67;2.95;;;;;;;21.87;59.03;101374.66;5035641;28;20553;-81
2023/06/23 19:30:08;;;;;;;6.47;2.63;;;;;;;21.55;59.94;101378.28;5035209;28;20107;-81
2023/06/23 19:33:12;;;;;;;7.82;3.03;;;;;;;21.51;60.13;101371.53;5035278;28;20084;-82
2023/06/23 19:36:15;;;;;;;5.50;2.85;;;;;;;21.26;61.65;101385.19;5035795;28;20064;-81
2023/06/23 19:39:19;;;;;;;4.95;3.10;;;;;;;21.09;62.54;101390.09;5036025;28;20076;-81
2023/06/23 19:42:23;;;;;;;7.25;2.75;;;;;;;20.91;63.49;101394.28;5035433;28;20521;-81
2023/06/23 19:45:27;;;;;;;4.90;2.97;;;;;;;20.86;63.53;101404.41;5035701;28;20103;-80